createdAt,value
2023-02-16T00:00:34.049Z,61.14
2023-02-16T00:03:35.800Z,61.12
2023-02-16T00:06:37.374Z,61.26
2023-02-16T00:09:38.995Z,61.30
2023-02-16T00:12:59.191Z,61.60
2023-02-16T00:16:00.877Z,61.82
2023-02-16T00:19:05.860Z,61.99
2023-02-16T00:22:08.230Z,62.19
2023-02-16T00:25:10.697Z,62.24
2023-02-16T00:28:18.570Z,62.35
2023-02-16T00:31:23.486Z,62.42
2023-02-16T00:34:37.054Z,62.47
2023-02-16T00:37:38.629Z,62.48
2023-02-16T00:40:41.229Z,62.40
2023-02-16T00:43:42.891Z,62.36
2023-02-16T00:46:45.470Z,62.25
2023-02-16T00:49:48.825Z,62.19
2023-02-16T00:52:52.131Z,62.15
2023-02-16T00:55:53.953Z,62.22
2023-02-16T00:58:55.533Z,62.26
2023-02-16T01:01:57.680Z,62.40
2023-02-16T01:04:59.496Z,62.55
2023-02-16T01:08:20.998Z,62.69
2023-02-16T01:11:24.159Z,62.73
2023-02-16T01:14:26.107Z,62.87
2023-02-16T01:17:27.865Z,62.82
2023-02-16T01:20:29.452Z,62.98
2023-02-16T01:23:31.051Z,62.91
2023-02-16T01:26:39.216Z,63.01
2023-02-16T01:29:42.223Z,63.02
2023-02-16T01:32:47.444Z,63.20
2023-02-16T01:35:50.051Z,63.20
2023-02-16T01:38:51.773Z,63.19
2023-02-16T01:42:02.358Z,63.29
2023-02-16T01:45:13.466Z,63.31
2023-02-16T01:48:22.263Z,63.46
2023-02-16T01:51:36.194Z,63.29
2023-02-16T01:54:51.732Z,63.55
2023-02-16T01:58:00.306Z,63.76
2023-02-16T02:01:02.107Z,63.93
2023-02-16T02:04:38.386Z,63.99
2023-02-16T02:08:17.481Z,63.91
2023-02-16T02:11:23.585Z,64.10
2023-02-16T02:14:36.189Z,64.05
2023-02-16T02:17:38.435Z,64.35
2023-02-16T02:21:11.113Z,64.15
2023-02-16T02:24:24.958Z,64.24
2023-02-16T02:27:47.266Z,64.29
2023-02-16T02:31:00.130Z,64.53
2023-02-16T02:34:21.076Z,64.86
2023-02-16T02:37:49.903Z,64.91
2023-02-16T02:41:04.814Z,64.90
2023-02-16T02:44:08.966Z,65.12
2023-02-16T02:47:10.875Z,65.13
2023-02-16T02:50:37.314Z,65.27
2023-02-16T02:54:15.536Z,65.62
2023-02-16T02:58:02.401Z,65.74
2023-02-16T03:01:05.457Z,65.73
2023-02-16T03:04:09.145Z,65.64
2023-02-16T03:07:11.948Z,65.45
2023-02-16T03:10:37.236Z,65.21
2023-02-16T03:13:52.796Z,65.24
2023-02-16T03:17:18.639Z,65.30
2023-02-16T03:20:41.504Z,65.18
2023-02-16T03:24:03.390Z,65.12
2023-02-16T03:27:24.149Z,65.29
2023-02-16T03:30:26.820Z,65.47
2023-02-16T03:33:30.374Z,65.62
2023-02-16T03:36:34.350Z,65.92
2023-02-16T03:39:55.989Z,66.11
2023-02-16T03:43:00.177Z,66.17
2023-02-16T03:46:01.834Z,66.28
2023-02-16T03:49:03.775Z,66.15
2023-02-16T03:52:05.447Z,66.07
2023-02-16T03:55:07.139Z,66.17
2023-02-16T03:58:10.854Z,66.02
2023-02-16T04:01:12.474Z,66.10
2023-02-16T04:04:14.853Z,66.21
2023-02-16T04:07:16.634Z,66.26
2023-02-16T04:10:23.027Z,66.59
2023-02-16T04:13:24.752Z,66.58
2023-02-16T04:16:26.320Z,66.73
2023-02-16T04:19:28.014Z,66.74
2023-02-16T04:22:29.746Z,66.68
2023-02-16T04:25:31.620Z,66.55
2023-02-16T04:28:33.211Z,66.59
2023-02-16T04:31:35.209Z,66.58
2023-02-16T04:34:37.005Z,66.65
2023-02-16T04:37:38.756Z,66.67
2023-02-16T04:40:40.456Z,66.76
2023-02-16T04:43:42.145Z,66.91
2023-02-16T04:46:43.699Z,67.12
2023-02-16T04:49:45.332Z,67.30
2023-02-16T04:52:47.091Z,67.45
2023-02-16T04:55:49.766Z,67.37
2023-02-16T04:58:51.382Z,67.33
2023-02-16T05:01:56.072Z,67.25
2023-02-16T05:04:57.757Z,66.99
2023-02-16T05:07:59.353Z,67.02
2023-02-16T05:11:19.581Z,66.83
2023-02-16T05:14:42.770Z,66.83
2023-02-16T05:17:44.462Z,66.82
2023-02-16T05:21:04.968Z,66.82
2023-02-16T05:24:09.926Z,66.85
2023-02-16T05:27:14.586Z,66.93
2023-02-16T05:30:16.342Z,67.11
2023-02-16T05:33:17.995Z,67.26
2023-02-16T05:36:20.091Z,67.41
2023-02-16T05:39:22.105Z,67.67
2023-02-16T05:42:23.656Z,67.73
2023-02-16T05:45:25.183Z,67.78
2023-02-16T05:48:27.188Z,67.70
2023-02-16T05:51:29.046Z,67.75
2023-02-16T05:54:30.664Z,67.80
2023-02-16T05:57:34.948Z,67.75
2023-02-16T06:00:38.326Z,67.57
2023-02-16T06:03:39.910Z,67.35
2023-02-16T06:06:42.087Z,67.37
2023-02-16T06:09:43.629Z,67.51
2023-02-16T06:12:45.301Z,67.51
2023-02-16T06:15:47.458Z,67.66
2023-02-16T06:18:49.036Z,67.79
2023-02-16T06:21:50.568Z,67.91
2023-02-16T06:24:52.214Z,68.10
2023-02-16T06:27:55.152Z,68.11
2023-02-16T06:30:56.833Z,68.06
2023-02-16T06:33:58.506Z,68.02
2023-02-16T06:37:00.057Z,68.00
2023-02-16T06:40:01.639Z,67.88
2023-02-16T06:43:03.421Z,67.87
2023-02-16T06:46:05.081Z,67.90
2023-02-16T06:49:06.670Z,67.94
2023-02-16T06:52:08.299Z,67.93
2023-02-16T06:55:09.850Z,67.92
2023-02-16T06:58:11.830Z,68.03
2023-02-16T07:01:13.564Z,68.30
2023-02-16T07:04:15.207Z,68.26
2023-02-16T07:07:16.852Z,68.30
2023-02-16T07:10:20.138Z,68.43
2023-02-16T07:13:21.749Z,68.45
2023-02-16T07:16:23.542Z,68.48
2023-02-16T07:19:25.601Z,68.37
2023-02-16T07:22:27.169Z,68.40
2023-02-16T07:25:28.834Z,68.22
2023-02-16T07:28:30.646Z,68.30
2023-02-16T07:31:32.330Z,68.36
2023-02-16T07:34:34.016Z,68.50
2023-02-16T07:37:35.755Z,68.82
2023-02-16T07:40:37.375Z,68.67
2023-02-16T07:43:39.387Z,68.71
2023-02-16T07:46:41.026Z,68.68
2023-02-16T07:49:42.654Z,68.68
2023-02-16T07:52:44.198Z,68.63
2023-02-16T07:55:46.183Z,68.58
2023-02-16T07:58:47.928Z,68.63
2023-02-16T08:01:49.617Z,68.55
2023-02-16T08:04:52.880Z,68.59
2023-02-16T08:07:54.951Z,68.49
2023-02-16T08:10:56.580Z,68.45
2023-02-16T08:14:01.487Z,68.79
2023-02-16T08:17:04.158Z,68.92
2023-02-16T08:20:07.671Z,68.96
2023-02-16T08:23:10.416Z,68.88
2023-02-16T08:26:12.279Z,68.60
2023-02-16T08:29:14.928Z,68.43
2023-02-16T08:32:16.655Z,68.12
2023-02-16T08:35:18.557Z,67.91
2023-02-16T08:38:20.889Z,67.71
2023-02-16T08:41:24.322Z,67.52
2023-02-16T08:44:26.676Z,67.28
2023-02-16T08:47:29.725Z,67.28
2023-02-16T08:50:32.758Z,67.08
2023-02-16T08:53:35.173Z,66.92
2023-02-16T08:56:36.753Z,66.77
2023-02-16T08:59:38.374Z,66.54
2023-02-16T09:02:39.984Z,66.32
2023-02-16T09:05:42.226Z,66.13
2023-02-16T09:08:44.752Z,65.92
2023-02-16T09:11:46.979Z,65.77
2023-02-16T09:14:48.546Z,65.59
2023-02-16T09:17:50.184Z,65.37
2023-02-16T09:20:51.819Z,65.27
2023-02-16T09:23:55.759Z,65.19
2023-02-16T09:26:57.362Z,64.89
2023-02-16T09:29:59.014Z,64.80
2023-02-16T09:33:00.869Z,64.75
2023-02-16T09:36:06.042Z,64.53
2023-02-16T09:39:08.174Z,64.31
2023-02-16T09:42:19.398Z,64.05
2023-02-16T09:45:21.855Z,63.88
2023-02-16T09:48:35.360Z,63.75
2023-02-16T09:51:41.139Z,63.57
2023-02-16T09:55:00.244Z,63.30
2023-02-16T09:58:03.149Z,63.17
2023-02-16T10:01:08.702Z,62.94
2023-02-16T10:04:43.839Z,62.78
2023-02-16T10:08:13.336Z,62.58
2023-02-16T10:12:00.747Z,62.52
2023-02-16T10:15:16.907Z,62.22
2023-02-16T10:18:34.362Z,62.02
2023-02-16T10:21:36.447Z,61.75
2023-02-16T10:24:44.952Z,61.79
2023-02-16T10:27:50.551Z,61.46
2023-02-16T10:31:03.283Z,61.28
2023-02-16T10:34:30.269Z,60.96
2023-02-16T10:37:46.713Z,60.98
2023-02-16T10:40:59.386Z,60.82
2023-02-16T10:44:27.080Z,60.45
2023-02-16T10:47:33.616Z,60.29
2023-02-16T10:50:43.986Z,60.13
2023-02-16T10:53:54.559Z,59.89
2023-02-16T10:57:00.985Z,59.60
2023-02-16T11:00:07.075Z,59.45
2023-02-16T11:03:12.339Z,59.45
2023-02-16T11:06:17.402Z,59.16
2023-02-16T11:09:27.843Z,59.07
2023-02-16T11:12:39.097Z,58.80
2023-02-16T11:15:41.216Z,58.63
2023-02-16T11:19:06.028Z,58.34
2023-02-16T11:22:24.937Z,58.14
2023-02-16T11:25:27.162Z,57.91
2023-02-16T11:28:36.398Z,57.76
2023-02-16T11:31:39.894Z,57.69
2023-02-16T11:34:50.964Z,57.60
2023-02-16T11:37:52.680Z,57.27
2023-02-16T11:40:54.649Z,57.06
2023-02-16T11:43:56.778Z,56.82
2023-02-16T11:46:59.929Z,56.60
2023-02-16T11:50:13.511Z,56.58
2023-02-16T11:53:25.190Z,56.24
2023-02-16T11:56:29.381Z,56.08
2023-02-16T11:59:37.307Z,56.00
2023-02-16T12:03:06.724Z,55.72
2023-02-16T12:06:08.506Z,55.30
2023-02-16T12:09:30.932Z,55.03
2023-02-16T12:12:43.756Z,54.80
2023-02-16T12:15:51.134Z,54.52
2023-02-16T12:19:04.918Z,54.35
2023-02-16T12:22:09.959Z,54.16
2023-02-16T12:25:26.093Z,53.91
2023-02-16T12:28:51.099Z,53.73
2023-02-16T12:32:14.623Z,53.58
2023-02-16T12:35:40.922Z,53.41
2023-02-16T12:39:07.980Z,53.09
2023-02-16T12:42:23.817Z,52.91
2023-02-16T12:45:28.156Z,52.61
2023-02-16T12:48:50.124Z,52.46
2023-02-16T12:52:24.400Z,52.20
2023-02-16T12:55:39.486Z,51.95
2023-02-16T12:58:45.262Z,51.73
2023-02-16T13:01:48.565Z,51.46
2023-02-16T13:04:54.501Z,51.24
2023-02-16T13:08:20.294Z,50.86
2023-02-16T13:11:30.769Z,50.39
2023-02-16T13:14:36.310Z,50.24
2023-02-16T13:17:43.526Z,50.08
2023-02-16T13:20:49.732Z,49.84
2023-02-16T13:24:07.491Z,49.48
2023-02-16T13:27:56.262Z,49.42
2023-02-16T13:31:16.432Z,49.33
2023-02-16T13:34:41.365Z,49.20
2023-02-16T13:37:49.079Z,48.95
2023-02-16T13:40:59.740Z,49.02
2023-02-16T13:44:09.433Z,48.91
2023-02-16T13:47:18.333Z,48.73
2023-02-16T13:50:23.778Z,48.42
2023-02-16T13:53:25.770Z,48.29
2023-02-16T13:56:30.818Z,48.23
2023-02-16T13:59:36.018Z,48.22
2023-02-16T14:02:52.794Z,48.06
2023-02-16T14:05:56.384Z,47.88
2023-02-16T14:09:16.412Z,47.76
2023-02-16T14:12:36.181Z,47.71
2023-02-16T14:15:51.118Z,47.68
2023-02-16T14:19:05.929Z,47.60
2023-02-16T14:22:11.684Z,47.49
2023-02-16T14:25:27.510Z,47.55
2023-02-16T14:28:32.058Z,47.37
2023-02-16T14:31:42.320Z,47.43
2023-02-16T14:34:57.928Z,47.45
2023-02-16T14:38:01.073Z,47.42
2023-02-16T14:41:27.432Z,47.41
2023-02-16T14:44:40.874Z,47.55
2023-02-16T14:47:42.424Z,47.51
2023-02-16T14:51:14.670Z,47.39
2023-02-16T14:54:37.214Z,47.53
2023-02-16T14:57:53.407Z,47.53
2023-02-16T15:01:14.198Z,47.57
2023-02-16T15:04:30.736Z,47.50
2023-02-16T15:07:32.397Z,47.64
2023-02-16T15:10:33.995Z,47.67
2023-02-16T15:13:35.726Z,47.71
2023-02-16T15:16:41.284Z,47.79
2023-02-16T15:19:43.966Z,47.80
2023-02-16T15:22:54.288Z,47.79
2023-02-16T15:26:03.559Z,47.77
2023-02-16T15:29:23.188Z,47.96
2023-02-16T15:32:25.019Z,48.15
2023-02-16T15:35:30.728Z,48.25
2023-02-16T15:38:35.203Z,48.43
2023-02-16T15:41:39.079Z,48.60
2023-02-16T15:44:40.673Z,48.72
2023-02-16T15:47:44.175Z,48.83
2023-02-16T15:50:48.335Z,48.98
2023-02-16T15:53:51.516Z,49.17
2023-02-16T15:56:55.153Z,49.29
2023-02-16T15:59:58.709Z,49.49
2023-02-16T16:03:01.122Z,49.67
2023-02-16T16:06:06.129Z,49.78
2023-02-16T16:09:18.175Z,49.90
2023-02-16T16:12:20.809Z,50.10
2023-02-16T16:15:25.835Z,50.23
2023-02-16T16:18:49.765Z,50.45
2023-02-16T16:21:55.622Z,50.67
2023-02-16T16:24:57.301Z,50.78
2023-02-16T16:27:59.234Z,50.94
2023-02-16T16:31:15.337Z,51.15
2023-02-16T16:34:40.134Z,51.30
2023-02-16T16:37:41.760Z,51.46
2023-02-16T16:40:50.572Z,51.69
2023-02-16T16:43:55.330Z,51.87
2023-02-16T16:46:57.030Z,52.06
2023-02-16T16:50:18.439Z,52.17
2023-02-16T16:53:39.866Z,52.34
2023-02-16T16:56:41.825Z,52.64
2023-02-16T16:59:43.408Z,52.65
2023-02-16T17:02:45.535Z,52.80
2023-02-16T17:05:47.475Z,53.07
2023-02-16T17:08:49.441Z,53.31
2023-02-16T17:11:51.010Z,53.47
2023-02-16T17:14:53.578Z,53.57
2023-02-16T17:17:55.639Z,53.85
2023-02-16T17:20:57.273Z,54.01
2023-02-16T17:23:58.836Z,54.35
2023-02-16T17:27:00.399Z,54.56
2023-02-16T17:30:02.045Z,54.84
2023-02-16T17:33:04.024Z,55.04
2023-02-16T17:36:07.469Z,55.26
2023-02-16T17:39:09.177Z,55.47
2023-02-16T17:42:11.480Z,55.65
2023-02-16T17:45:18.863Z,55.77
2023-02-16T17:48:27.993Z,55.95
2023-02-16T17:51:31.713Z,56.14
2023-02-16T17:54:33.300Z,56.55
2023-02-16T17:57:35.248Z,56.93
2023-02-16T18:00:38.034Z,57.31
2023-02-16T18:03:39.801Z,57.53
2023-02-16T18:06:41.336Z,57.80
2023-02-16T18:09:42.927Z,57.72
2023-02-16T18:12:44.560Z,58.01
2023-02-16T18:15:48.245Z,58.09
2023-02-16T18:18:49.792Z,58.09
2023-02-16T18:21:51.362Z,58.21
2023-02-16T18:24:52.937Z,58.23
2023-02-16T18:27:54.530Z,58.15
2023-02-16T18:30:56.858Z,58.34
2023-02-16T18:33:58.891Z,58.54
2023-02-16T18:37:00.761Z,58.86
2023-02-16T18:40:02.527Z,59.22
2023-02-16T18:43:04.174Z,59.58
2023-02-16T18:46:07.827Z,59.84
2023-02-16T18:49:09.581Z,59.98
2023-02-16T18:52:11.166Z,60.05
2023-02-16T18:55:13.434Z,60.34
2023-02-16T18:58:15.174Z,60.39
2023-02-16T19:01:27.444Z,60.45
2023-02-16T19:04:29.433Z,60.47
2023-02-16T19:07:31.006Z,60.47
2023-02-16T19:10:33.410Z,60.51
2023-02-16T19:13:34.953Z,60.56
2023-02-16T19:16:36.673Z,60.66
2023-02-16T19:19:38.473Z,60.67
2023-02-16T19:22:40.247Z,60.60
2023-02-16T19:25:41.792Z,60.69
2023-02-16T19:28:43.405Z,60.91
2023-02-16T19:31:44.934Z,61.33
2023-02-16T19:34:46.612Z,61.59
2023-02-16T19:37:48.174Z,61.65
2023-02-16T19:40:49.901Z,61.70
2023-02-16T19:43:55.239Z,61.80
2023-02-16T19:46:56.871Z,61.96
2023-02-16T19:49:58.513Z,61.94
2023-02-16T19:53:00.091Z,62.00
2023-02-16T19:56:08.193Z,62.00
2023-02-16T19:59:10.045Z,62.10
2023-02-16T20:02:14.711Z,62.15
2023-02-16T20:05:16.673Z,62.18
2023-02-16T20:08:18.325Z,62.27
2023-02-16T20:11:21.878Z,62.40
2023-02-16T20:14:23.869Z,62.78
2023-02-16T20:17:26.301Z,63.00
2023-02-16T20:20:28.311Z,63.29
2023-02-16T20:23:30.109Z,63.47
2023-02-16T20:26:35.510Z,63.50
2023-02-16T20:29:37.843Z,63.56
2023-02-16T20:32:39.458Z,63.51
2023-02-16T20:35:42.505Z,63.60
2023-02-16T20:38:44.570Z,63.64
2023-02-16T20:41:46.292Z,63.66
2023-02-16T20:44:47.977Z,63.73
2023-02-16T20:47:49.566Z,63.61
2023-02-16T20:50:59.144Z,63.82
2023-02-16T20:54:01.641Z,63.97
2023-02-16T20:57:05.042Z,64.25
2023-02-16T21:00:18.524Z,64.41
2023-02-16T21:03:20.181Z,64.59
2023-02-16T21:06:22.418Z,64.55
2023-02-16T21:09:24.106Z,64.43
2023-02-16T21:12:25.828Z,64.34
2023-02-16T21:15:27.445Z,64.41
2023-02-16T21:18:29.171Z,64.43
2023-02-16T21:21:30.782Z,64.48
2023-02-16T21:24:32.415Z,64.58
2023-02-16T21:27:34.005Z,64.74
2023-02-16T21:30:35.705Z,64.88
2023-02-16T21:33:37.329Z,65.22
2023-02-16T21:36:39.110Z,65.45
2023-02-16T21:39:59.102Z,65.41
2023-02-16T21:43:00.746Z,65.30
2023-02-16T21:46:02.686Z,65.51
2023-02-16T21:49:06.782Z,65.35
2023-02-16T21:52:08.407Z,65.40
2023-02-16T21:55:28.585Z,65.41
2023-02-16T21:58:33.859Z,65.51
2023-02-16T22:01:42.630Z,65.61
2023-02-16T22:04:44.227Z,65.86
2023-02-16T22:07:45.978Z,66.21
2023-02-16T22:10:47.807Z,66.24
2023-02-16T22:13:53.877Z,66.18
2023-02-16T22:16:56.151Z,66.36
2023-02-16T22:19:57.749Z,66.22
2023-02-16T22:22:59.372Z,66.19
2023-02-16T22:26:01.737Z,66.31
2023-02-16T22:29:14.759Z,66.33
2023-02-16T22:32:25.112Z,66.39
2023-02-16T22:35:26.769Z,66.46
2023-02-16T22:38:28.431Z,66.63
2023-02-16T22:41:30.400Z,66.78
2023-02-16T22:44:31.953Z,66.91
2023-02-16T22:47:33.556Z,67.01
2023-02-16T22:50:35.195Z,67.29
2023-02-16T22:53:38.643Z,67.08
2023-02-16T22:56:40.960Z,67.08
2023-02-16T22:59:42.514Z,67.05
2023-02-16T23:02:44.113Z,67.03
2023-02-16T23:05:45.955Z,66.99
2023-02-16T23:08:52.370Z,67.11
2023-02-16T23:11:53.989Z,67.10
2023-02-16T23:14:55.634Z,67.25
2023-02-16T23:17:57.293Z,67.42
2023-02-16T23:21:07.068Z,67.56
2023-02-16T23:24:13.333Z,67.76
2023-02-16T23:27:14.883Z,67.87
2023-02-16T23:30:16.618Z,67.91
2023-02-16T23:33:18.215Z,67.91
2023-02-16T23:36:19.801Z,67.97
2023-02-16T23:39:21.398Z,68.04
2023-02-16T23:42:22.970Z,68.05
2023-02-16T23:45:24.616Z,68.11
2023-02-16T23:48:26.426Z,68.01
2023-02-16T23:51:28.402Z,68.06
2023-02-16T23:54:30.007Z,68.20
2023-02-16T23:57:31.696Z,68.32
